createdAt,value
2022-09-29T00:00:33.442Z,18.15
2022-09-29T00:03:35.107Z,18.18
2022-09-29T00:06:03.954Z,18.33
2022-09-29T00:08:35.252Z,18.14
2022-09-29T00:11:08.911Z,18.15
2022-09-29T00:13:38.983Z,18.13
2022-09-29T00:16:13.153Z,18.12
2022-09-29T00:18:46.622Z,18.02
2022-09-29T00:21:21.901Z,17.99
2022-09-29T00:23:55.635Z,17.90
2022-09-29T00:26:29.469Z,17.80
2022-09-29T00:28:59.171Z,17.91
2022-09-29T00:31:32.561Z,17.94
2022-09-29T00:34:04.209Z,17.89
2022-09-29T00:36:32.733Z,17.76
2022-09-29T00:39:03.077Z,17.66
2022-09-29T00:41:36.718Z,17.66
2022-09-29T00:44:21.017Z,17.51
2022-09-29T00:46:59.662Z,17.44
2022-09-29T00:49:45.326Z,17.30
2022-09-29T00:52:26.906Z,17.22
2022-09-29T00:55:06.832Z,17.08
2022-09-29T00:57:45.943Z,16.96
2022-09-29T01:00:16.649Z,16.90
2022-09-29T01:02:52.569Z,16.92
2022-09-29T01:05:30.570Z,16.81
2022-09-29T01:08:07.407Z,16.86
2022-09-29T01:10:36.951Z,16.92
2022-09-29T01:13:04.716Z,16.93
2022-09-29T01:15:34.581Z,16.92
2022-09-29T01:18:07.141Z,16.88
2022-09-29T01:20:55.406Z,16.79
2022-09-29T01:24:10.049Z,16.74
2022-09-29T01:26:55.134Z,16.83
2022-09-29T01:30:05.446Z,16.81
2022-09-29T01:32:53.015Z,16.93
2022-09-29T01:35:40.575Z,17.11
2022-09-29T01:38:42.740Z,17.13
2022-09-29T01:41:44.394Z,17.16
2022-09-29T01:44:12.322Z,17.31
2022-09-29T01:46:57.531Z,17.46
2022-09-29T01:49:28.925Z,17.49
2022-09-29T01:52:15.197Z,17.55
2022-09-29T01:54:53.957Z,17.54
2022-09-29T01:57:33.046Z,17.52
2022-09-29T02:00:24.211Z,17.47
2022-09-29T02:03:06.214Z,17.51
2022-09-29T02:05:59.190Z,17.57
2022-09-29T02:08:37.152Z,17.59
2022-09-29T02:11:07.131Z,17.59
2022-09-29T02:13:51.177Z,17.50
2022-09-29T02:16:26.790Z,17.38
2022-09-29T02:19:16.179Z,17.47
2022-09-29T02:21:47.690Z,17.34
2022-09-29T02:24:18.859Z,17.15
2022-09-29T02:26:47.798Z,17.16
2022-09-29T02:29:17.809Z,17.20
2022-09-29T02:31:51.071Z,17.07
2022-09-29T02:34:20.840Z,17.08
2022-09-29T02:37:26.415Z,17.06
2022-09-29T02:40:22.722Z,17.10
2022-09-29T02:43:26.858Z,17.03
2022-09-29T02:46:08.558Z,16.94
2022-09-29T02:49:03.314Z,17.02
2022-09-29T02:51:57.945Z,17.05
2022-09-29T02:54:55.951Z,17.03
2022-09-29T02:57:50.970Z,17.05
2022-09-29T03:00:19.844Z,17.11
2022-09-29T03:02:49.113Z,17.12
2022-09-29T03:05:20.018Z,17.07
2022-09-29T03:07:48.624Z,17.03
2022-09-29T03:10:19.638Z,17.09
2022-09-29T03:12:51.184Z,17.09
2022-09-29T03:15:25.122Z,17.13
2022-09-29T03:17:57.404Z,17.05
2022-09-29T03:20:27.228Z,16.95
2022-09-29T03:22:59.898Z,16.90
2022-09-29T03:25:28.678Z,16.86
2022-09-29T03:27:58.564Z,16.83
2022-09-29T03:30:26.164Z,16.84
2022-09-29T03:32:55.779Z,16.86
2022-09-29T03:35:53.739Z,17.00
2022-09-29T03:38:29.066Z,16.96
2022-09-29T03:40:59.032Z,17.09
2022-09-29T03:43:27.301Z,17.02
2022-09-29T03:45:59.460Z,17.00
2022-09-29T03:48:31.563Z,17.05
2022-09-29T03:51:00.201Z,16.94
2022-09-29T03:53:35.816Z,16.70
2022-09-29T03:56:04.605Z,16.68
2022-09-29T03:58:32.698Z,16.72
2022-09-29T04:01:06.913Z,16.71
2022-09-29T04:03:34.912Z,16.65
2022-09-29T04:06:06.745Z,16.52
2022-09-29T04:08:37.584Z,16.49
2022-09-29T04:11:06.979Z,16.44
2022-09-29T04:13:36.419Z,16.46
2022-09-29T04:16:05.979Z,16.53
2022-09-29T04:18:34.765Z,16.63
2022-09-29T04:21:10.026Z,16.70
2022-09-29T04:23:38.917Z,16.60
2022-09-29T04:26:08.395Z,16.69
2022-09-29T04:28:38.897Z,16.70
2022-09-29T04:31:08.353Z,16.69
2022-09-29T04:33:39.787Z,16.61
2022-09-29T04:36:08.288Z,16.62
2022-09-29T04:38:36.937Z,16.56
2022-09-29T04:41:05.646Z,16.50
2022-09-29T04:44:04.953Z,16.54
2022-09-29T04:46:34.491Z,16.50
2022-09-29T04:49:02.666Z,16.47
2022-09-29T04:51:32.897Z,16.52
2022-09-29T04:54:00.652Z,16.55
2022-09-29T04:56:31.997Z,16.49
2022-09-29T04:59:01.444Z,16.48
2022-09-29T05:01:30.552Z,16.49
2022-09-29T05:03:58.405Z,16.40
2022-09-29T05:06:27.749Z,16.42
2022-09-29T05:08:57.308Z,16.39
2022-09-29T05:11:26.573Z,16.43
2022-09-29T05:13:55.343Z,16.47
2022-09-29T05:16:26.300Z,16.50
2022-09-29T05:18:53.810Z,16.56
2022-09-29T05:21:28.225Z,16.60
2022-09-29T05:23:59.266Z,16.65
2022-09-29T05:26:26.720Z,16.63
2022-09-29T05:28:55.788Z,16.65
2022-09-29T05:31:25.223Z,16.68
2022-09-29T05:33:54.976Z,16.77
2022-09-29T05:36:22.599Z,16.82
2022-09-29T05:38:52.460Z,16.88
2022-09-29T05:41:24.491Z,17.11
2022-09-29T05:43:55.328Z,17.10
2022-09-29T05:46:24.000Z,17.14
2022-09-29T05:48:54.594Z,17.22
2022-09-29T05:51:25.131Z,17.29
2022-09-29T05:53:56.520Z,17.32
2022-09-29T05:56:27.389Z,17.27
2022-09-29T06:00:14.085Z,17.29
2022-09-29T06:02:43.126Z,17.25
2022-09-29T06:05:19.989Z,17.11
2022-09-29T06:07:50.332Z,17.06
2022-09-29T06:10:23.600Z,17.05
2022-09-29T06:12:52.828Z,16.97
2022-09-29T06:15:21.850Z,16.98
2022-09-29T06:17:57.533Z,16.99
2022-09-29T06:20:26.219Z,16.97
2022-09-29T06:22:59.106Z,16.91
2022-09-29T06:26:28.713Z,17.14
2022-09-29T06:29:19.871Z,17.11
2022-09-29T06:32:10.918Z,17.13
2022-09-29T06:38:42.907Z,17.17
2022-09-29T06:41:10.565Z,17.19
2022-09-29T06:43:38.281Z,17.19
2022-09-29T06:46:06.749Z,17.18
2022-09-29T06:48:34.922Z,17.07
2022-09-29T06:51:09.412Z,17.09
2022-09-29T06:53:42.705Z,17.09
2022-09-29T06:56:10.521Z,17.14
2022-09-29T06:58:41.171Z,17.12
2022-09-29T07:01:12.035Z,17.04
2022-09-29T07:03:40.755Z,17.13
2022-09-29T07:06:20.151Z,17.11
2022-09-29T07:09:07.881Z,17.10
2022-09-29T07:11:36.830Z,17.11
2022-09-29T07:14:08.925Z,17.16
2022-09-29T07:16:37.617Z,17.02
2022-09-29T07:19:05.337Z,17.19
2022-09-29T07:21:35.757Z,17.25
2022-09-29T07:24:06.186Z,17.26
2022-09-29T07:26:36.244Z,17.29
2022-09-29T07:29:08.441Z,17.36
2022-09-29T07:31:50.987Z,17.45
2022-09-29T07:34:23.136Z,17.49
2022-09-29T07:36:52.604Z,17.62
2022-09-29T07:39:22.818Z,17.67
2022-09-29T07:41:52.243Z,17.72
2022-09-29T07:44:20.807Z,17.72
2022-09-29T07:46:50.275Z,17.71
2022-09-29T07:49:19.577Z,17.78
2022-09-29T07:51:48.882Z,17.87
2022-09-29T07:54:20.001Z,17.94
2022-09-29T07:56:48.238Z,18.09
2022-09-29T07:59:16.090Z,18.08
2022-09-29T08:01:43.518Z,18.27
2022-09-29T08:04:13.348Z,18.37
2022-09-29T08:06:41.618Z,18.45
2022-09-29T08:09:10.212Z,18.62
2022-09-29T08:11:41.481Z,18.74
2022-09-29T08:14:10.270Z,18.93
2022-09-29T08:16:39.420Z,19.05
2022-09-29T08:19:08.423Z,19.04
2022-09-29T08:21:37.373Z,19.19
2022-09-29T08:24:07.135Z,19.42
2022-09-29T08:26:44.001Z,19.59
2022-09-29T08:29:16.830Z,19.72
2022-09-29T08:31:49.088Z,19.95
2022-09-29T08:34:17.916Z,20.17
2022-09-29T08:36:48.312Z,20.42
2022-09-29T08:39:15.915Z,20.78
2022-09-29T08:41:51.293Z,21.28
2022-09-29T08:44:45.929Z,21.38
2022-09-29T08:47:13.830Z,21.72
2022-09-29T08:49:57.444Z,22.37
2022-09-29T08:52:49.364Z,23.07
2022-09-29T08:55:48.207Z,23.00
2022-09-29T08:58:18.080Z,22.96
2022-09-29T09:01:35.757Z,22.78
2022-09-29T09:04:32.566Z,22.86
2022-09-29T09:07:15.596Z,23.57
2022-09-29T09:09:57.765Z,24.20
2022-09-29T09:12:40.897Z,25.17
2022-09-29T09:15:34.874Z,25.38
2022-09-29T09:18:27.449Z,26.21
2022-09-29T09:21:18.359Z,25.77
2022-09-29T09:24:14.666Z,25.39
2022-09-29T09:26:48.420Z,25.45
2022-09-29T09:29:31.568Z,24.99
2022-09-29T09:32:08.946Z,25.45
2022-09-29T09:34:45.753Z,26.01
2022-09-29T09:37:23.531Z,26.70
2022-09-29T09:40:11.776Z,26.72
2022-09-29T09:42:45.320Z,26.96
2022-09-29T09:45:31.517Z,25.75
2022-09-29T09:48:17.266Z,24.94
2022-09-29T09:50:50.768Z,24.95
2022-09-29T09:53:43.726Z,25.37
2022-09-29T09:56:24.937Z,25.22
2022-09-29T09:59:37.039Z,24.88
2022-09-29T10:02:22.204Z,24.60
2022-09-29T10:04:53.722Z,24.55
2022-09-29T10:07:28.259Z,24.28
2022-09-29T10:10:04.870Z,24.05
2022-09-29T10:12:36.393Z,24.46
2022-09-29T10:15:22.305Z,24.33
2022-09-29T10:18:02.021Z,23.57
2022-09-29T10:20:37.982Z,23.88
2022-09-29T10:23:24.381Z,24.76
2022-09-29T10:26:06.999Z,25.62
2022-09-29T10:29:25.630Z,25.85
2022-09-29T10:32:07.599Z,26.16
2022-09-29T10:34:40.844Z,26.09
2022-09-29T10:37:25.294Z,26.18
2022-09-29T10:40:13.320Z,25.77
2022-09-29T10:42:47.096Z,25.94
2022-09-29T10:45:16.231Z,25.91
2022-09-29T10:47:58.251Z,26.32
2022-09-29T10:50:33.469Z,26.53
2022-09-29T10:53:18.012Z,27.06
2022-09-29T10:55:59.256Z,27.49
2022-09-29T10:58:45.639Z,27.58
2022-09-29T11:01:28.874Z,27.46
2022-09-29T11:04:07.086Z,27.28
2022-09-29T11:06:43.655Z,26.88
2022-09-29T11:09:29.928Z,26.75
2022-09-29T11:12:01.605Z,26.42
2022-09-29T11:14:38.703Z,26.67
2022-09-29T11:17:24.986Z,27.41
2022-09-29T11:19:56.475Z,27.41
2022-09-29T11:22:52.014Z,26.92
2022-09-29T11:25:44.529Z,27.20
2022-09-29T11:28:37.777Z,27.89
2022-09-29T11:31:26.620Z,28.04
2022-09-29T11:34:16.258Z,26.99
2022-09-29T11:37:10.917Z,27.70
2022-09-29T11:40:01.159Z,27.43
2022-09-29T11:43:06.054Z,27.61
2022-09-29T11:45:43.789Z,27.32
2022-09-29T11:48:36.592Z,27.50
2022-09-29T11:51:21.904Z,27.74
2022-09-29T11:54:17.540Z,27.48
2022-09-29T11:57:01.998Z,27.28
2022-09-29T11:59:50.570Z,27.36
2022-09-29T12:02:46.278Z,27.08
2022-09-29T12:05:52.103Z,27.02
2022-09-29T12:08:45.268Z,27.29
2022-09-29T12:12:18.927Z,27.77
2022-09-29T12:15:08.477Z,27.90
2022-09-29T12:17:54.762Z,27.49
2022-09-29T12:20:30.261Z,27.27
2022-09-29T12:23:07.196Z,26.44
2022-09-29T12:25:56.766Z,25.60
2022-09-29T12:28:53.476Z,25.45
2022-09-29T12:31:37.392Z,25.56
2022-09-29T12:34:50.299Z,25.68
2022-09-29T12:37:46.500Z,25.69
2022-09-29T12:40:37.878Z,25.76
2022-09-29T12:43:23.194Z,25.91
2022-09-29T12:46:19.104Z,26.21
2022-09-29T12:49:29.520Z,26.27
2022-09-29T12:51:58.723Z,25.64
2022-09-29T12:54:47.614Z,25.92
2022-09-29T12:57:25.621Z,26.00
2022-09-29T13:00:15.843Z,25.94
2022-09-29T13:03:49.424Z,25.62
2022-09-29T13:06:56.878Z,25.60
2022-09-29T13:10:21.619Z,24.84
2022-09-29T13:13:02.339Z,24.46
2022-09-29T13:15:54.878Z,24.23
2022-09-29T13:18:33.747Z,24.15
2022-09-29T13:21:19.387Z,23.90
2022-09-29T13:24:23.150Z,23.84
2022-09-29T13:27:31.802Z,24.10
2022-09-29T13:30:18.418Z,24.53
2022-09-29T13:32:56.378Z,25.35
2022-09-29T13:35:27.946Z,25.37
2022-09-29T13:38:05.735Z,25.72
2022-09-29T13:40:39.799Z,25.64
2022-09-29T13:43:37.712Z,25.69
2022-09-29T13:46:28.624Z,25.96
2022-09-29T13:49:26.166Z,25.51
2022-09-29T13:52:31.177Z,25.03
2022-09-29T13:55:37.867Z,24.73
2022-09-29T13:58:31.592Z,25.14
2022-09-29T14:01:01.615Z,24.75
2022-09-29T14:03:44.018Z,24.84
2022-09-29T14:06:41.390Z,24.68
2022-09-29T14:09:24.156Z,24.41
2022-09-29T14:12:20.487Z,24.22
2022-09-29T14:15:07.210Z,24.60
2022-09-29T14:17:38.818Z,24.79
2022-09-29T14:20:32.696Z,24.77
2022-09-29T14:23:01.947Z,24.74
2022-09-29T14:25:53.744Z,24.70
2022-09-29T14:28:42.683Z,24.86
2022-09-29T14:31:20.823Z,24.55
2022-09-29T14:33:50.369Z,24.76
2022-09-29T14:36:21.136Z,24.74
2022-09-29T14:39:14.382Z,24.63
2022-09-29T14:41:47.272Z,24.78
2022-09-29T14:44:54.321Z,24.53
2022-09-29T14:48:24.493Z,24.75
2022-09-29T14:51:38.584Z,24.87
2022-09-29T14:54:56.570Z,24.60
2022-09-29T14:57:57.829Z,24.47
2022-09-29T15:00:37.181Z,24.33
2022-09-29T15:03:26.441Z,24.27
2022-09-29T15:06:25.161Z,23.93
2022-09-29T15:08:55.446Z,23.68
2022-09-29T15:11:38.248Z,23.39
2022-09-29T15:14:24.542Z,23.33
2022-09-29T15:17:29.478Z,23.30
2022-09-29T15:20:15.405Z,23.27
2022-09-29T15:22:58.491Z,23.21
2022-09-29T15:25:37.568Z,23.14
2022-09-29T15:28:22.561Z,22.99
2022-09-29T15:30:51.010Z,23.04
2022-09-29T15:33:23.192Z,23.14
2022-09-29T15:35:58.912Z,22.94
2022-09-29T15:38:32.720Z,22.90
2022-09-29T15:41:14.981Z,22.87
2022-09-29T15:43:45.464Z,22.76
2022-09-29T15:46:23.705Z,22.67
2022-09-29T15:49:14.024Z,22.56
2022-09-29T15:51:44.263Z,22.44
2022-09-29T15:54:14.391Z,22.33
2022-09-29T15:57:00.665Z,22.31
2022-09-29T15:59:56.838Z,22.02
2022-09-29T16:02:38.834Z,21.89
2022-09-29T16:05:18.617Z,21.77
2022-09-29T16:07:59.710Z,21.62
2022-09-29T16:10:36.604Z,21.48
2022-09-29T16:13:19.951Z,21.39
2022-09-29T16:15:50.854Z,21.30
2022-09-29T16:18:49.600Z,21.22
2022-09-29T16:21:24.282Z,21.08
2022-09-29T16:24:02.662Z,21.16
2022-09-29T16:26:41.881Z,21.10
2022-09-29T16:29:40.511Z,21.02
2022-09-29T16:32:37.189Z,21.02
2022-09-29T16:35:42.238Z,21.02
2022-09-29T16:38:20.389Z,20.94
2022-09-29T16:40:53.151Z,20.83
2022-09-29T16:43:31.643Z,20.78
2022-09-29T16:46:03.776Z,20.73
2022-09-29T16:48:45.230Z,20.69
2022-09-29T17:12:53.056Z,20.43
2022-09-29T17:16:23.843Z,20.47
2022-09-29T17:20:34.202Z,20.45
2022-09-29T17:24:10.573Z,20.40
2022-09-29T17:27:44.889Z,20.36
2022-09-29T17:44:32.812Z,20.03
2022-09-29T17:47:26.696Z,20.01
2022-09-29T17:50:26.483Z,19.94
2022-09-29T17:53:06.291Z,19.86
2022-09-29T17:55:39.963Z,19.90
2022-09-29T18:03:17.757Z,19.79
2022-09-29T18:14:59.484Z,19.73
2022-09-29T18:17:35.982Z,19.68
2022-09-29T18:24:06.341Z,19.81
2022-09-29T18:26:36.327Z,19.83
2022-09-29T18:29:17.489Z,19.86
2022-09-29T18:31:47.921Z,19.91
2022-09-29T18:37:50.032Z,19.58
2022-09-29T18:40:59.831Z,19.45
2022-09-29T18:43:56.179Z,19.43
2022-09-29T18:46:59.402Z,19.41
2022-09-29T18:49:37.883Z,19.35
2022-09-29T18:52:24.428Z,19.19
2022-09-29T18:54:59.727Z,19.20
2022-09-29T19:02:29.061Z,18.89
2022-09-29T19:06:32.315Z,19.04
2022-09-29T19:09:04.981Z,19.01
2022-09-29T19:11:43.765Z,19.01
2022-09-29T19:14:41.320Z,18.77
2022-09-29T19:17:12.389Z,18.74
2022-09-29T19:19:43.809Z,18.69
2022-09-29T19:27:01.979Z,18.29
2022-09-29T19:29:33.264Z,18.45
2022-09-29T19:36:56.931Z,18.31
2022-09-29T19:39:28.906Z,18.05
2022-09-29T19:51:20.934Z,18.02
2022-09-29T19:54:11.400Z,17.99
2022-09-29T19:56:52.504Z,17.85
2022-09-29T19:59:33.111Z,17.86
2022-09-29T20:02:26.794Z,17.83
2022-09-29T20:15:18.780Z,17.60
2022-09-29T20:18:20.376Z,17.51
2022-09-29T20:22:10.730Z,17.44
2022-09-29T20:31:16.729Z,17.30
2022-09-29T20:43:56.214Z,17.55
2022-09-29T20:46:32.149Z,17.51
2022-09-29T20:52:33.988Z,17.53
2022-09-29T20:55:13.775Z,17.41
2022-09-29T21:00:12.659Z,17.38
2022-09-29T21:11:01.569Z,17.46
2022-09-29T21:26:51.852Z,17.34
2022-09-29T21:29:24.004Z,16.95
2022-09-29T21:31:54.076Z,17.15
2022-09-29T21:34:22.235Z,17.14
2022-09-29T21:36:52.918Z,17.07
2022-09-29T21:39:21.579Z,17.08
2022-09-29T21:41:50.998Z,17.06
2022-09-29T21:44:25.349Z,17.10
2022-09-29T21:46:54.524Z,17.12
2022-09-29T21:49:22.960Z,17.20
2022-09-29T21:51:52.046Z,17.42
2022-09-29T21:54:25.037Z,17.71
2022-09-29T21:56:55.516Z,17.67
2022-09-29T21:59:28.121Z,17.69
2022-09-29T22:05:29.897Z,17.65
2022-09-29T22:08:28.450Z,17.57
2022-09-29T22:11:06.369Z,17.46
2022-09-29T22:13:36.944Z,17.38
2022-09-29T22:16:08.475Z,17.23
2022-09-29T22:18:42.048Z,17.17
2022-09-29T22:21:20.780Z,17.14
2022-09-29T22:23:57.816Z,17.02
2022-09-29T22:26:32.470Z,16.89
2022-09-29T22:29:09.730Z,16.84
2022-09-29T22:31:40.553Z,16.70
2022-09-29T22:34:58.632Z,16.73
2022-09-29T22:37:33.953Z,16.75
2022-09-29T22:40:08.730Z,16.67
2022-09-29T22:42:44.298Z,16.73
2022-09-29T22:45:14.791Z,16.66
2022-09-29T22:47:52.514Z,16.64
2022-09-29T22:50:49.188Z,16.63
2022-09-29T22:53:17.892Z,16.67
2022-09-29T22:56:07.561Z,16.67
2022-09-29T22:58:45.177Z,16.56
2022-09-29T23:01:19.906Z,16.56
2022-09-29T23:03:57.280Z,16.69
2022-09-29T23:06:33.020Z,16.66
2022-09-29T23:10:02.187Z,16.65
2022-09-29T23:12:30.058Z,16.57
2022-09-29T23:15:01.648Z,16.58
2022-09-29T23:17:30.697Z,16.60
2022-09-29T23:20:01.582Z,16.54
2022-09-29T23:22:32.724Z,16.60
2022-09-29T23:25:06.346Z,16.56
2022-09-29T23:27:35.366Z,16.60
2022-09-29T23:30:05.240Z,16.48
2022-09-29T23:32:36.591Z,16.45
2022-09-29T23:35:05.462Z,16.40
2022-09-29T23:37:54.128Z,16.38
2022-09-29T23:40:22.450Z,16.39
2022-09-29T23:42:52.249Z,16.35
2022-09-29T23:45:22.098Z,16.41
2022-09-29T23:47:51.741Z,16.32
2022-09-29T23:50:22.096Z,16.31
2022-09-29T23:52:55.410Z,16.19
2022-09-29T23:55:25.580Z,16.21
2022-09-29T23:57:55.398Z,16.21
